sensor_id;sensor_type;location;lat;lon;timestamp;pressure;altitude;pressure_sealevel;temperature;humidity
62655;BME280;48717;55.556;37.816;2023-08-20T00:02:10;99870.22;;;22.53;69.98
62655;BME280;48717;55.556;37.816;2023-08-20T00:04:38;99852.41;;;22.33;70.69
62655;BME280;48717;55.556;37.816;2023-08-20T00:07:06;99845.34;;;22.12;71.96
62655;BME280;48717;55.556;37.816;2023-08-20T00:09:34;99863.31;;;22.10;72.37
62655;BME280;48717;55.556;37.816;2023-08-20T00:12:01;99841.06;;;22.08;72.21
62655;BME280;48717;55.556;37.816;2023-08-20T00:15:06;99852.47;;;22.31;71.47
62655;BME280;48717;55.556;37.816;2023-08-20T00:17:38;99849.16;;;22.26;71.96
62655;BME280;48717;55.556;37.816;2023-08-20T00:20:08;99852.38;;;22.15;72.59
62655;BME280;48717;55.556;37.816;2023-08-20T00:22:40;99842.84;;;22.27;74.05
62655;BME280;48717;55.556;37.816;2023-08-20T00:25:09;99827.75;;;22.61;71.79
62655;BME280;48717;55.556;37.816;2023-08-20T00:27:37;99837.50;;;23.15;70.29
62655;BME280;48717;55.556;37.816;2023-08-20T00:30:04;99849.25;;;23.64;68.45
62655;BME280;48717;55.556;37.816;2023-08-20T00:32:32;99843.34;;;24.06;66.39
62655;BME280;48717;55.556;37.816;2023-08-20T00:35:00;99837.44;;;24.47;64.61
62655;BME280;48717;55.556;37.816;2023-08-20T00:37:30;99843.63;;;24.64;63.92
62655;BME280;48717;55.556;37.816;2023-08-20T00:39:58;99816.38;;;24.54;63.56
62655;BME280;48717;55.556;37.816;2023-08-20T00:42:26;99823.53;;;24.70;63.31
62655;BME280;48717;55.556;37.816;2023-08-20T00:44:53;99830.38;;;24.75;62.97
62655;BME280;48717;55.556;37.816;2023-08-20T00:47:20;99797.22;;;24.59;62.76
62655;BME280;48717;55.556;37.816;2023-08-20T00:49:48;99800.22;;;24.54;62.97
62655;BME280;48717;55.556;37.816;2023-08-20T00:52:16;99821.06;;;24.50;63.29
62655;BME280;48717;55.556;37.816;2023-08-20T00:54:45;99811.97;;;24.37;63.95
62655;BME280;48717;55.556;37.816;2023-08-20T00:57:17;99812.03;;;24.51;62.90
62655;BME280;48717;55.556;37.816;2023-08-20T00:59:47;99817.22;;;24.55;62.89
62655;BME280;48717;55.556;37.816;2023-08-20T01:02:17;99805.09;;;24.47;63.07
62655;BME280;48717;55.556;37.816;2023-08-20T01:04:46;99804.19;;;24.32;63.54
62655;BME280;48717;55.556;37.816;2023-08-20T01:12:45;99802.72;;;24.27;64.10
62655;BME280;48717;55.556;37.816;2023-08-20T01:15:13;99803.38;;;24.30;63.27
62655;BME280;48717;55.556;37.816;2023-08-20T01:17:43;99790.03;;;23.96;63.95
62655;BME280;48717;55.556;37.816;2023-08-20T01:20:13;99818.38;;;23.88;64.91
62655;BME280;48717;55.556;37.816;2023-08-20T01:30:54;99813.31;;;24.30;60.63
62655;BME280;48717;55.556;37.816;2023-08-20T01:33:23;99811.53;;;24.29;60.52
62655;BME280;48717;55.556;37.816;2023-08-20T01:35:54;99821.59;;;24.41;60.37
62655;BME280;48717;55.556;37.816;2023-08-20T01:38:22;99809.78;;;24.44;60.25
62655;BME280;48717;55.556;37.816;2023-08-20T01:40:49;99814.06;;;24.32;60.76
62655;BME280;48717;55.556;37.816;2023-08-20T01:43:16;99808.59;;;24.33;61.08
62655;BME280;48717;55.556;37.816;2023-08-20T01:45:44;99806.44;;;24.08;62.40
62655;BME280;48717;55.556;37.816;2023-08-20T01:48:11;99814.03;;;23.85;63.67
62655;BME280;48717;55.556;37.816;2023-08-20T01:50:38;99807.53;;;23.39;65.92
62655;BME280;48717;55.556;37.816;2023-08-20T01:53:05;99817.25;;;23.08;68.05
62655;BME280;48717;55.556;37.816;2023-08-20T01:55:32;99813.72;;;23.07;68.59
62655;BME280;48717;55.556;37.816;2023-08-20T01:57:59;99818.00;;;23.28;67.55
62655;BME280;48717;55.556;37.816;2023-08-20T02:00:26;99820.22;;;23.37;67.48
62655;BME280;48717;55.556;37.816;2023-08-20T02:02:57;99822.84;;;23.39;67.39
62655;BME280;48717;55.556;37.816;2023-08-20T02:05:25;99821.19;;;23.36;67.47
62655;BME280;48717;55.556;37.816;2023-08-20T02:07:53;99818.94;;;23.27;68.12
62655;BME280;48717;55.556;37.816;2023-08-20T02:10:20;99830.41;;;23.30;68.13
62655;BME280;48717;55.556;37.816;2023-08-20T02:12:48;99816.75;;;23.17;68.85
62655;BME280;48717;55.556;37.816;2023-08-20T02:15:17;99808.53;;;23.20;68.85
62655;BME280;48717;55.556;37.816;2023-08-20T02:17:44;99807.75;;;23.36;68.34
62655;BME280;48717;55.556;37.816;2023-08-20T02:20:11;99811.97;;;23.23;68.75
62655;BME280;48717;55.556;37.816;2023-08-20T02:22:38;99817.41;;;23.05;70.19
62655;BME280;48717;55.556;37.816;2023-08-20T02:25:06;99813.38;;;23.14;70.25
62655;BME280;48717;55.556;37.816;2023-08-20T02:27:33;99813.38;;;23.14;70.52
62655;BME280;48717;55.556;37.816;2023-08-20T02:30:00;99806.13;;;23.32;69.83
62655;BME280;48717;55.556;37.816;2023-08-20T02:32:30;99812.78;;;23.42;69.63
62655;BME280;48717;55.556;37.816;2023-08-20T02:35:00;99794.00;;;23.41;69.29
62655;BME280;48717;55.556;37.816;2023-08-20T02:37:29;99789.97;;;23.50;69.40
62655;BME280;48717;55.556;37.816;2023-08-20T02:39:56;99786.91;;;23.56;69.20
62655;BME280;48717;55.556;37.816;2023-08-20T02:42:23;99797.31;;;23.62;68.88
62655;BME280;48717;55.556;37.816;2023-08-20T02:44:50;99798.88;;;23.66;68.78
62655;BME280;48717;55.556;37.816;2023-08-20T02:47:17;99794.47;;;23.65;68.59
62655;BME280;48717;55.556;37.816;2023-08-20T02:49:44;99811.50;;;23.82;68.39
62655;BME280;48717;55.556;37.816;2023-08-20T02:52:11;99812.78;;;23.75;68.61
62655;BME280;48717;55.556;37.816;2023-08-20T02:54:38;99812.03;;;23.72;68.86
62655;BME280;48717;55.556;37.816;2023-08-20T02:57:05;99813.91;;;23.70;68.89
62655;BME280;48717;55.556;37.816;2023-08-20T02:59:32;99808.63;;;23.85;68.16
62655;BME280;48717;55.556;37.816;2023-08-20T03:02:01;99820.09;;;23.89;68.17
62655;BME280;48717;55.556;37.816;2023-08-20T03:04:31;99814.50;;;23.76;68.73
62655;BME280;48717;55.556;37.816;2023-08-20T03:06:57;99800.81;;;23.80;68.73
62655;BME280;48717;55.556;37.816;2023-08-20T03:09:26;99807.41;;;23.75;68.89
62655;BME280;48717;55.556;37.816;2023-08-20T03:11:53;99806.28;;;23.79;68.72
62655;BME280;48717;55.556;37.816;2023-08-20T03:14:21;99793.19;;;23.56;69.56
62655;BME280;48717;55.556;37.816;2023-08-20T03:16:49;99797.22;;;23.47;70.31
62655;BME280;48717;55.556;37.816;2023-08-20T03:19:16;99810.63;;;23.65;69.62
62655;BME280;48717;55.556;37.816;2023-08-20T03:21:43;99805.31;;;23.80;69.07
62655;BME280;48717;55.556;37.816;2023-08-20T03:24:10;99809.56;;;23.84;69.16
62655;BME280;48717;55.556;37.816;2023-08-20T03:26:37;99829.63;;;23.62;70.15
62655;BME280;48717;55.556;37.816;2023-08-20T03:29:05;99827.28;;;23.88;69.29
62655;BME280;48717;55.556;37.816;2023-08-20T03:31:32;99814.34;;;24.11;67.85
62655;BME280;48717;55.556;37.816;2023-08-20T03:33:59;99813.22;;;24.15;67.43
62655;BME280;48717;55.556;37.816;2023-08-20T03:36:27;99823.06;;;24.16;67.35
62655;BME280;48717;55.556;37.816;2023-08-20T03:38:55;99821.47;;;24.28;66.68
62655;BME280;48717;55.556;37.816;2023-08-20T03:41:22;99822.56;;;24.40;65.59
62655;BME280;48717;55.556;37.816;2023-08-20T03:43:49;99817.91;;;24.28;65.52
62655;BME280;48717;55.556;37.816;2023-08-20T03:46:16;99809.16;;;24.24;65.30
62655;BME280;48717;55.556;37.816;2023-08-20T03:48:43;99822.31;;;24.29;65.09
62655;BME280;48717;55.556;37.816;2023-08-20T03:51:10;99803.63;;;24.42;64.16
62655;BME280;48717;55.556;37.816;2023-08-20T03:53:37;99818.69;;;24.30;63.62
62655;BME280;48717;55.556;37.816;2023-08-20T03:56:04;99814.16;;;24.30;63.41
62655;BME280;48717;55.556;37.816;2023-08-20T03:58:31;99798.97;;;24.29;64.20
62655;BME280;48717;55.556;37.816;2023-08-20T04:01:01;99810.66;;;24.44;64.03
62655;BME280;48717;55.556;37.816;2023-08-20T04:03:28;99809.13;;;24.08;66.27
62655;BME280;48717;55.556;37.816;2023-08-20T04:05:55;99822.19;;;23.83;68.29
62655;BME280;48717;55.556;37.816;2023-08-20T04:08:22;99830.25;;;22.82;74.84
62655;BME280;48717;55.556;37.816;2023-08-20T04:10:49;99818.13;;;22.01;84.33
62655;BME280;48717;55.556;37.816;2023-08-20T04:13:16;99832.72;;;21.17;89.66
62655;BME280;48717;55.556;37.816;2023-08-20T04:15:44;99851.00;;;20.43;93.81
62655;BME280;48717;55.556;37.816;2023-08-20T04:18:11;99858.25;;;20.18;99.11
62655;BME280;48717;55.556;37.816;2023-08-20T04:20:38;99850.09;;;19.99;98.88
62655;BME280;48717;55.556;37.816;2023-08-20T04:23:06;99833.50;;;19.89;100.00
62655;BME280;48717;55.556;37.816;2023-08-20T04:25:34;99831.50;;;19.94;100.00
62655;BME280;48717;55.556;37.816;2023-08-20T04:28:01;99799.63;;;19.66;100.00
62655;BME280;48717;55.556;37.816;2023-08-20T04:30:29;99803.38;;;19.38;100.00
62655;BME280;48717;55.556;37.816;2023-08-20T04:32:56;99814.72;;;19.44;100.00
62655;BME280;48717;55.556;37.816;2023-08-20T04:35:23;99816.84;;;19.35;100.00
62655;BME280;48717;55.556;37.816;2023-08-20T04:37:51;99801.75;;;19.34;100.00
62655;BME280;48717;55.556;37.816;2023-08-20T04:40:18;99787.09;;;19.20;100.00
62655;BME280;48717;55.556;37.816;2023-08-20T04:42:46;99801.06;;;19.28;100.00
62655;BME280;48717;55.556;37.816;2023-08-20T04:45:13;99785.19;;;19.24;100.00
62655;BME280;48717;55.556;37.816;2023-08-20T04:47:41;99799.53;;;18.96;100.00
62655;BME280;48717;55.556;37.816;2023-08-20T04:50:08;99781.75;;;18.69;100.00
62655;BME280;48717;55.556;37.816;2023-08-20T04:52:35;99780.34;;;18.59;100.00
62655;BME280;48717;55.556;37.816;2023-08-20T04:55:03;99783.19;;;18.79;100.00
62655;BME280;48717;55.556;37.816;2023-08-20T04:57:30;99770.63;;;18.82;100.00
62655;BME280;48717;55.556;37.816;2023-08-20T04:59:57;99784.69;;;18.87;100.00
62655;BME280;48717;55.556;37.816;2023-08-20T05:02:45;99764.00;;;18.68;100.00
62655;BME280;48717;55.556;37.816;2023-08-20T05:05:15;99767.97;;;18.82;100.00
62655;BME280;48717;55.556;37.816;2023-08-20T05:07:44;99769.50;;;18.89;100.00
62655;BME280;48717;55.556;37.816;2023-08-20T05:10:12;99784.72;;;19.12;100.00
62655;BME280;48717;55.556;37.816;2023-08-20T05:12:39;99774.19;;;19.31;100.00
62655;BME280;48717;55.556;37.816;2023-08-20T05:15:07;99770.41;;;19.61;100.00
62655;BME280;48717;55.556;37.816;2023-08-20T05:17:35;99741.25;;;19.31;100.00
62655;BME280;48717;55.556;37.816;2023-08-20T05:20:02;99753.06;;;19.25;100.00
62655;BME280;48717;55.556;37.816;2023-08-20T05:22:30;99761.00;;;19.27;100.00
62655;BME280;48717;55.556;37.816;2023-08-20T05:24:57;99750.44;;;19.24;100.00
62655;BME280;48717;55.556;37.816;2023-08-20T05:27:27;99741.63;;;19.22;100.00
62655;BME280;48717;55.556;37.816;2023-08-20T05:29:56;99740.63;;;19.24;100.00
62655;BME280;48717;55.556;37.816;2023-08-20T05:32:23;99730.16;;;19.18;100.00
62655;BME280;48717;55.556;37.816;2023-08-20T05:34:52;99720.63;;;19.35;100.00
62655;BME280;48717;55.556;37.816;2023-08-20T05:37:19;99729.09;;;19.46;100.00
62655;BME280;48717;55.556;37.816;2023-08-20T05:39:46;99728.59;;;19.59;100.00
62655;BME280;48717;55.556;37.816;2023-08-20T05:42:14;99702.41;;;19.67;100.00
62655;BME280;48717;55.556;37.816;2023-08-20T05:44:47;99710.88;;;20.01;99.91
62655;BME280;48717;55.556;37.816;2023-08-20T05:47:19;99698.91;;;20.09;97.89
62655;BME280;48717;55.556;37.816;2023-08-20T05:49:47;99697.31;;;20.26;96.79
62655;BME280;48717;55.556;37.816;2023-08-20T05:52:14;99709.22;;;20.60;96.86
62655;BME280;48717;55.556;37.816;2023-08-20T05:54:42;99708.38;;;21.00;94.80
62655;BME280;48717;55.556;37.816;2023-08-20T05:57:10;99698.97;;;21.30;92.89
62655;BME280;48717;55.556;37.816;2023-08-20T05:59:37;99704.88;;;21.75;91.71
62655;BME280;48717;55.556;37.816;2023-08-20T06:02:04;99703.34;;;22.06;87.56
62655;BME280;48717;55.556;37.816;2023-08-20T06:04:31;99712.91;;;22.29;84.27
62655;BME280;48717;55.556;37.816;2023-08-20T06:06:58;99698.22;;;22.54;84.41
62655;BME280;48717;55.556;37.816;2023-08-20T06:09:25;99697.63;;;22.83;82.88
62655;BME280;48717;55.556;37.816;2023-08-20T06:11:54;99670.63;;;22.85;80.93
62655;BME280;48717;55.556;37.816;2023-08-20T06:14:24;99595.19;;;22.88;77.69
62655;BME280;48717;55.556;37.816;2023-08-20T06:16:51;99635.13;;;23.75;74.60
62655;BME280;48717;55.556;37.816;2023-08-20T06:19:19;99641.81;;;24.14;71.96
62655;BME280;48717;55.556;37.816;2023-08-20T06:21:53;99704.16;;;24.68;70.03
62655;BME280;48717;55.556;37.816;2023-08-20T06:24:21;99666.28;;;24.25;70.54
62655;BME280;48717;55.556;37.816;2023-08-20T06:26:50;99705.44;;;24.91;69.64
62655;BME280;48717;55.556;37.816;2023-08-20T06:29:18;99698.44;;;25.31;66.56
62655;BME280;48717;55.556;37.816;2023-08-20T06:31:45;99693.63;;;25.36;65.90
62655;BME280;48717;55.556;37.816;2023-08-20T06:34:12;99679.63;;;25.44;64.57
62655;BME280;48717;55.556;37.816;2023-08-20T06:36:39;99695.75;;;26.00;63.26
62655;BME280;48717;55.556;37.816;2023-08-20T06:39:06;99696.63;;;26.14;63.12
62655;BME280;48717;55.556;37.816;2023-08-20T06:41:34;99693.28;;;26.10;63.57
62655;BME280;48717;55.556;37.816;2023-08-20T06:44:02;99688.31;;;26.17;62.37
62655;BME280;48717;55.556;37.816;2023-08-20T06:46:30;99665.44;;;26.23;60.64
62655;BME280;48717;55.556;37.816;2023-08-20T06:48:57;99687.50;;;26.29;60.49
62655;BME280;48717;55.556;37.816;2023-08-20T06:51:24;99675.78;;;26.16;61.33
62655;BME280;48717;55.556;37.816;2023-08-20T06:53:52;99679.31;;;26.44;61.15
62655;BME280;48717;55.556;37.816;2023-08-20T06:56:19;99678.22;;;26.46;61.24
62655;BME280;48717;55.556;37.816;2023-08-20T06:58:46;99685.13;;;26.64;61.65
62655;BME280;48717;55.556;37.816;2023-08-20T07:01:13;99677.13;;;26.49;61.03
62655;BME280;48717;55.556;37.816;2023-08-20T07:03:42;99704.91;;;26.77;59.36
62655;BME280;48717;55.556;37.816;2023-08-20T07:06:10;99679.31;;;26.70;59.53
62655;BME280;48717;55.556;37.816;2023-08-20T07:08:38;99696.69;;;26.79;60.17
62655;BME280;48717;55.556;37.816;2023-08-20T07:11:07;99697.47;;;26.55;60.85
62655;BME280;48717;55.556;37.816;2023-08-20T07:13:35;99675.22;;;26.51;61.87
62655;BME280;48717;55.556;37.816;2023-08-20T07:16:02;99669.94;;;26.22;61.63
62655;BME280;48717;55.556;37.816;2023-08-20T07:18:29;99684.38;;;25.95;63.05
62655;BME280;48717;55.556;37.816;2023-08-20T07:20:57;99657.09;;;25.72;63.16
62655;BME280;48717;55.556;37.816;2023-08-20T07:23:24;99682.44;;;25.97;63.04
62655;BME280;48717;55.556;37.816;2023-08-20T07:26:07;99683.63;;;26.33;62.03
62655;BME280;48717;55.556;37.816;2023-08-20T07:28:35;99678.84;;;26.76;61.42
62655;BME280;48717;55.556;37.816;2023-08-20T07:31:21;99670.09;;;27.36;59.61
62655;BME280;48717;55.556;37.816;2023-08-20T07:33:49;99669.81;;;27.52;58.94
62655;BME280;48717;55.556;37.816;2023-08-20T07:36:17;99668.19;;;27.87;58.12
62655;BME280;48717;55.556;37.816;2023-08-20T07:38:44;99673.28;;;28.14;56.21
62655;BME280;48717;55.556;37.816;2023-08-20T07:41:11;99661.41;;;27.93;56.91
62655;BME280;48717;55.556;37.816;2023-08-20T07:43:39;99655.81;;;28.19;56.42
62655;BME280;48717;55.556;37.816;2023-08-20T07:46:08;99669.97;;;28.58;54.52
62655;BME280;48717;55.556;37.816;2023-08-20T07:48:36;99671.19;;;28.77;54.17
62655;BME280;48717;55.556;37.816;2023-08-20T07:51:03;99674.91;;;28.76;53.78
62655;BME280;48717;55.556;37.816;2023-08-20T07:53:31;99669.50;;;29.10;52.85
62655;BME280;48717;55.556;37.816;2023-08-20T07:56:00;99650.97;;;29.15;52.92
62655;BME280;48717;55.556;37.816;2023-08-20T07:58:27;99650.66;;;29.41;52.13
62655;BME280;48717;55.556;37.816;2023-08-20T08:00:57;99654.38;;;29.52;51.09
62655;BME280;48717;55.556;37.816;2023-08-20T08:03:28;99644.25;;;29.42;50.39
62655;BME280;48717;55.556;37.816;2023-08-20T08:05:57;99637.69;;;29.45;49.32
62655;BME280;48717;55.556;37.816;2023-08-20T08:08:26;99628.63;;;29.67;49.04
62655;BME280;48717;55.556;37.816;2023-08-20T08:10:54;99624.13;;;29.99;48.02
62655;BME280;48717;55.556;37.816;2023-08-20T08:13:22;99637.06;;;30.49;46.70
62655;BME280;48717;55.556;37.816;2023-08-20T08:15:50;99626.78;;;30.53;46.48
62655;BME280;48717;55.556;37.816;2023-08-20T08:18:20;99633.00;;;30.34;47.28
62655;BME280;48717;55.556;37.816;2023-08-20T08:20:48;99619.16;;;30.47;47.18
62655;BME280;48717;55.556;37.816;2023-08-20T08:23:21;99622.09;;;30.96;46.22
62655;BME280;48717;55.556;37.816;2023-08-20T08:25:49;99614.19;;;31.44;43.42
62655;BME280;48717;55.556;37.816;2023-08-20T08:28:17;99618.78;;;31.63;43.15
62655;BME280;48717;55.556;37.816;2023-08-20T08:30:45;99606.06;;;32.51;40.41
62655;BME280;48717;55.556;37.816;2023-08-20T08:33:13;99610.94;;;33.14;39.57
62655;BME280;48717;55.556;37.816;2023-08-20T08:35:40;99598.97;;;33.15;38.91
62655;BME280;48717;55.556;37.816;2023-08-20T08:38:11;99590.63;;;33.16;38.56
62655;BME280;48717;55.556;37.816;2023-08-20T08:40:40;99602.06;;;33.48;38.17
62655;BME280;48717;55.556;37.816;2023-08-20T08:43:10;99587.81;;;33.44;38.17
62655;BME280;48717;55.556;37.816;2023-08-20T08:45:46;99597.91;;;33.26;37.85
62655;BME280;48717;55.556;37.816;2023-08-20T08:48:19;99592.38;;;33.36;37.82
62655;BME280;48717;55.556;37.816;2023-08-20T08:50:47;99597.41;;;33.12;38.13
62655;BME280;48717;55.556;37.816;2023-08-20T08:53:15;99587.44;;;33.39;38.13
62655;BME280;48717;55.556;37.816;2023-08-20T08:55:42;99597.44;;;33.49;37.91
62655;BME280;48717;55.556;37.816;2023-08-20T08:58:09;99597.53;;;33.75;37.32
62655;BME280;48717;55.556;37.816;2023-08-20T09:00:36;99578.56;;;33.73;36.94
62655;BME280;48717;55.556;37.816;2023-08-20T09:03:04;99596.06;;;34.07;36.51
62655;BME280;48717;55.556;37.816;2023-08-20T09:05:31;99596.38;;;34.04;36.43
62655;BME280;48717;55.556;37.816;2023-08-20T09:07:58;99585.13;;;34.07;36.44
62655;BME280;48717;55.556;37.816;2023-08-20T09:10:26;99605.75;;;34.20;36.40
62655;BME280;48717;55.556;37.816;2023-08-20T09:12:55;99600.03;;;34.40;35.16
62655;BME280;48717;55.556;37.816;2023-08-20T09:15:31;99599.81;;;34.06;36.33
62655;BME280;48717;55.556;37.816;2023-08-20T09:18:01;99597.59;;;33.83;36.28
62655;BME280;48717;55.556;37.816;2023-08-20T09:20:38;99603.75;;;33.49;36.55
62655;BME280;48717;55.556;37.816;2023-08-20T09:23:11;99612.81;;;32.47;38.90
62655;BME280;48717;55.556;37.816;2023-08-20T09:25:39;99600.34;;;32.45;38.90
62655;BME280;48717;55.556;37.816;2023-08-20T09:28:06;99591.50;;;32.89;37.86
62655;BME280;48717;55.556;37.816;2023-08-20T09:30:33;99598.63;;;33.64;37.01
62655;BME280;48717;55.556;37.816;2023-08-20T09:33:06;99585.31;;;34.41;35.83
62655;BME280;48717;55.556;37.816;2023-08-20T09:35:34;99557.34;;;33.94;35.99
62655;BME280;48717;55.556;37.816;2023-08-20T09:38:03;99568.22;;;33.85;36.26
62655;BME280;48717;55.556;37.816;2023-08-20T09:40:30;99565.84;;;33.91;36.03
62655;BME280;48717;55.556;37.816;2023-08-20T09:42:58;99567.00;;;34.06;35.41
62655;BME280;48717;55.556;37.816;2023-08-20T09:45:28;99568.69;;;34.34;34.97
62655;BME280;48717;55.556;37.816;2023-08-20T09:47:55;99562.97;;;34.45;34.46
62655;BME280;48717;55.556;37.816;2023-08-20T09:50:26;99548.91;;;34.40;34.88
62655;BME280;48717;55.556;37.816;2023-08-20T09:53:04;99549.47;;;34.52;34.22
62655;BME280;48717;55.556;37.816;2023-08-20T09:55:35;99538.06;;;34.65;34.16
62655;BME280;48717;55.556;37.816;2023-08-20T09:58:03;99541.00;;;34.63;34.77
62655;BME280;48717;55.556;37.816;2023-08-20T10:00:31;99539.53;;;34.16;35.69
62655;BME280;48717;55.556;37.816;2023-08-20T10:02:59;99550.59;;;34.06;35.77
62655;BME280;48717;55.556;37.816;2023-08-20T10:05:26;99555.94;;;33.90;35.53
62655;BME280;48717;55.556;37.816;2023-08-20T10:07:55;99556.16;;;34.15;35.25
62655;BME280;48717;55.556;37.816;2023-08-20T10:10:22;99508.44;;;33.91;35.02
62655;BME280;48717;55.556;37.816;2023-08-20T10:12:50;99548.44;;;33.92;35.54
62655;BME280;48717;55.556;37.816;2023-08-20T10:15:17;99547.00;;;33.79;35.56
62655;BME280;48717;55.556;37.816;2023-08-20T10:17:45;99550.28;;;33.65;35.94
62655;BME280;48717;55.556;37.816;2023-08-20T10:20:14;99554.09;;;33.72;35.69
62655;BME280;48717;55.556;37.816;2023-08-20T10:22:43;99551.34;;;33.54;37.37
62655;BME280;48717;55.556;37.816;2023-08-20T10:25:21;99558.03;;;32.87;37.45
62655;BME280;48717;55.556;37.816;2023-08-20T10:27:48;99548.09;;;32.29;38.03
62655;BME280;48717;55.556;37.816;2023-08-20T10:30:25;99565.81;;;32.53;38.62
62655;BME280;48717;55.556;37.816;2023-08-20T10:32:55;99550.06;;;31.99;39.44
62655;BME280;48717;55.556;37.816;2023-08-20T10:35:25;99543.31;;;32.03;39.17
62655;BME280;48717;55.556;37.816;2023-08-20T10:38:13;99534.63;;;32.18;39.50
62655;BME280;48717;55.556;37.816;2023-08-20T10:40:57;99525.44;;;31.71;39.87
62655;BME280;48717;55.556;37.816;2023-08-20T10:48:38;99519.81;;;30.94;41.63
62655;BME280;48717;55.556;37.816;2023-08-20T10:51:16;99496.59;;;30.80;42.16
62655;BME280;48717;55.556;37.816;2023-08-20T10:53:48;99519.72;;;30.54;43.33
62655;BME280;48717;55.556;37.816;2023-08-20T10:56:16;99500.25;;;29.96;44.64
62655;BME280;48717;55.556;37.816;2023-08-20T10:58:45;99510.78;;;29.80;45.56
62655;BME280;48717;55.556;37.816;2023-08-20T11:03:46;99502.94;;;29.65;46.21
62655;BME280;48717;55.556;37.816;2023-08-20T11:06:14;99511.09;;;29.65;46.21
62655;BME280;48717;55.556;37.816;2023-08-20T11:08:42;99519.78;;;29.48;47.07
62655;BME280;48717;55.556;37.816;2023-08-20T11:11:10;99510.88;;;29.03;48.04
62655;BME280;48717;55.556;37.816;2023-08-20T11:13:39;99516.25;;;29.14;48.25
62655;BME280;48717;55.556;37.816;2023-08-20T11:16:06;99505.22;;;28.95;47.47
62655;BME280;48717;55.556;37.816;2023-08-20T11:18:35;99509.97;;;28.58;49.09
62655;BME280;48717;55.556;37.816;2023-08-20T11:21:02;99492.59;;;28.38;49.97
62655;BME280;48717;55.556;37.816;2023-08-20T11:23:29;99495.81;;;28.54;50.04
62655;BME280;48717;55.556;37.816;2023-08-20T11:25:57;99490.28;;;28.33;50.49
62655;BME280;48717;55.556;37.816;2023-08-20T11:28:26;99480.88;;;28.60;50.13
62655;BME280;48717;55.556;37.816;2023-08-20T11:30:53;99475.88;;;28.77;49.37
62655;BME280;48717;55.556;37.816;2023-08-20T11:33:22;99463.66;;;28.27;50.98
62655;BME280;48717;55.556;37.816;2023-08-20T11:35:51;99480.41;;;28.09;51.22
62655;BME280;48717;55.556;37.816;2023-08-20T11:38:20;99459.97;;;27.94;51.56
62655;BME280;48717;55.556;37.816;2023-08-20T11:40:47;99463.41;;;28.30;51.14
62655;BME280;48717;55.556;37.816;2023-08-20T11:43:14;99458.09;;;28.17;51.44
62655;BME280;48717;55.556;37.816;2023-08-20T11:45:45;99477.66;;;27.75;52.74
62655;BME280;48717;55.556;37.816;2023-08-20T11:48:14;99482.22;;;27.39;53.87
62655;BME280;48717;55.556;37.816;2023-08-20T11:50:41;99479.31;;;26.93;56.10
62655;BME280;48717;55.556;37.816;2023-08-20T11:53:09;99466.78;;;26.67;56.29
62655;BME280;48717;55.556;37.816;2023-08-20T11:55:38;99467.88;;;26.27;58.32
62655;BME280;48717;55.556;37.816;2023-08-20T11:58:12;99485.34;;;26.22;59.78
62655;BME280;48717;55.556;37.816;2023-08-20T12:00:40;99483.22;;;26.14;60.75
62655;BME280;48717;55.556;37.816;2023-08-20T12:03:08;99486.41;;;25.54;55.87
62655;BME280;48717;55.556;37.816;2023-08-20T12:05:36;99505.94;;;24.62;58.01
62655;BME280;48717;55.556;37.816;2023-08-20T12:08:04;99483.00;;;24.42;59.35
62655;BME280;48717;55.556;37.816;2023-08-20T12:10:32;99497.75;;;24.21;63.07
62655;BME280;48717;55.556;37.816;2023-08-20T12:13:00;99523.63;;;23.79;68.73
62655;BME280;48717;55.556;37.816;2023-08-20T12:15:28;99530.56;;;23.21;71.86
62655;BME280;48717;55.556;37.816;2023-08-20T12:18:01;99521.75;;;22.71;77.61
62655;BME280;48717;55.556;37.816;2023-08-20T12:20:34;99504.69;;;22.06;82.65
62655;BME280;48717;55.556;37.816;2023-08-20T12:23:03;99525.72;;;21.80;85.71
62655;BME280;48717;55.556;37.816;2023-08-20T12:25:33;99517.50;;;21.30;86.54
62655;BME280;48717;55.556;37.816;2023-08-20T12:28:02;99492.72;;;21.07;91.63
62655;BME280;48717;55.556;37.816;2023-08-20T12:30:32;99495.22;;;20.93;93.71
62655;BME280;48717;55.556;37.816;2023-08-20T12:33:04;99506.28;;;20.85;95.36
62655;BME280;48717;55.556;37.816;2023-08-20T12:35:33;99496.31;;;20.50;96.06
62655;BME280;48717;55.556;37.816;2023-08-20T12:38:00;99497.91;;;20.16;96.97
62655;BME280;48717;55.556;37.816;2023-08-20T12:40:28;99491.13;;;20.08;98.73
62655;BME280;48717;55.556;37.816;2023-08-20T12:42:55;99490.09;;;20.11;100.00
62655;BME280;48717;55.556;37.816;2023-08-20T12:45:22;99497.53;;;20.04;100.00
62655;BME280;48717;55.556;37.816;2023-08-20T12:47:49;99492.38;;;20.00;100.00
62655;BME280;48717;55.556;37.816;2023-08-20T12:50:16;99509.47;;;19.95;100.00
62655;BME280;48717;55.556;37.816;2023-08-20T12:52:43;99507.28;;;19.85;100.00
62655;BME280;48717;55.556;37.816;2023-08-20T12:55:10;99516.72;;;19.73;100.00
62655;BME280;48717;55.556;37.816;2023-08-20T12:57:52;99503.56;;;19.47;100.00
62655;BME280;48717;55.556;37.816;2023-08-20T13:00:20;99514.00;;;19.74;100.00
62655;BME280;48717;55.556;37.816;2023-08-20T13:02:47;99507.75;;;20.15;100.00
62655;BME280;48717;55.556;37.816;2023-08-20T13:05:14;99500.41;;;20.40;100.00
62655;BME280;48717;55.556;37.816;2023-08-20T13:07:42;99506.16;;;20.69;100.00
62655;BME280;48717;55.556;37.816;2023-08-20T13:10:09;99503.84;;;20.61;100.00
62655;BME280;48717;55.556;37.816;2023-08-20T13:12:37;99497.34;;;20.28;100.00
62655;BME280;48717;55.556;37.816;2023-08-20T13:15:05;99520.78;;;20.23;100.00
62655;BME280;48717;55.556;37.816;2023-08-20T13:17:33;99522.81;;;20.18;100.00